createdAt,value
2022-08-22T00:03:10.469Z,7.12
2022-08-22T00:04:46.680Z,7.66
2022-08-22T00:06:18.353Z,12.93
2022-08-22T00:07:51.063Z,9.46
2022-08-22T00:09:22.559Z,8.92
2022-08-22T00:10:53.988Z,9.13
2022-08-22T00:12:25.629Z,8.06
2022-08-22T00:14:01.720Z,8.12
2022-08-22T00:15:43.601Z,9.57
2022-08-22T00:17:15.666Z,10.13
2022-08-22T00:18:47.013Z,11.91
2022-08-22T00:20:18.437Z,11.17
2022-08-22T00:21:49.871Z,11.98
2022-08-22T00:23:21.518Z,8.66
2022-08-22T00:24:52.852Z,10.83
2022-08-22T00:26:24.192Z,11.70
2022-08-22T00:27:55.623Z,10.30
2022-08-22T00:29:27.204Z,9.17
2022-08-22T00:31:00.283Z,11.60
2022-08-22T00:32:31.686Z,10.66
2022-08-22T00:34:03.031Z,8.99
2022-08-22T00:35:34.428Z,9.98
2022-08-22T00:37:05.822Z,10.19
2022-08-22T00:38:38.672Z,9.78
2022-08-22T00:40:13.569Z,9.14
2022-08-22T00:41:45.074Z,9.19
2022-08-22T00:43:16.401Z,10.36
2022-08-22T00:44:48.121Z,10.37
2022-08-22T00:46:19.583Z,9.41
2022-08-22T00:47:50.976Z,10.64
2022-08-22T00:49:22.315Z,7.48
2022-08-22T00:50:56.936Z,9.92
2022-08-22T00:52:28.452Z,8.95
2022-08-22T00:54:00.074Z,8.58
2022-08-22T00:55:35.079Z,10.46
2022-08-22T00:57:06.765Z,9.19
2022-08-22T00:58:38.336Z,10.90
2022-08-22T01:00:09.771Z,9.44
2022-08-22T01:01:41.657Z,9.10
2022-08-22T01:03:13.467Z,11.71
2022-08-22T01:04:45.040Z,11.38
2022-08-22T01:06:16.587Z,10.26
2022-08-22T01:07:49.125Z,10.68
2022-08-22T01:09:20.459Z,10.81
2022-08-22T01:10:51.807Z,13.49
2022-08-22T01:12:23.236Z,12.14
2022-08-22T01:13:54.861Z,10.12
2022-08-22T01:15:26.418Z,12.99
2022-08-22T01:16:58.053Z,10.00
2022-08-22T01:18:29.465Z,12.98
2022-08-22T01:20:01.021Z,10.91
2022-08-22T01:21:32.442Z,10.75
2022-08-22T01:23:03.981Z,10.39
2022-08-22T01:24:35.307Z,11.64
2022-08-22T01:26:06.697Z,12.47
2022-08-22T01:27:41.374Z,11.27
2022-08-22T01:29:13.085Z,13.38
2022-08-22T01:30:45.735Z,13.67
2022-08-22T01:32:17.259Z,14.77
2022-08-22T01:33:48.639Z,12.37
2022-08-22T01:35:20.137Z,11.89
2022-08-22T01:36:51.584Z,13.28
2022-08-22T01:38:22.991Z,14.80
2022-08-22T01:39:54.483Z,10.68
2022-08-22T01:41:26.087Z,11.46
2022-08-22T01:42:57.499Z,10.20
2022-08-22T01:44:29.038Z,12.32
2022-08-22T01:46:00.376Z,12.78
2022-08-22T01:47:36.576Z,11.76
2022-08-22T01:49:09.152Z,10.97
2022-08-22T01:50:40.746Z,11.39
2022-08-22T01:52:12.125Z,11.49
2022-08-22T01:53:43.892Z,10.28
2022-08-22T01:55:15.407Z,10.77
2022-08-22T01:56:46.735Z,11.32
2022-08-22T01:58:18.081Z,11.78
2022-08-22T01:59:49.498Z,10.54
2022-08-22T02:01:20.863Z,9.14
2022-08-22T02:02:52.444Z,12.80
2022-08-22T02:04:23.780Z,10.74
2022-08-22T02:05:55.197Z,11.51
2022-08-22T02:07:32.038Z,11.24
2022-08-22T02:09:03.752Z,12.36
2022-08-22T02:10:35.121Z,12.92
2022-08-22T02:12:06.812Z,12.28
2022-08-22T02:13:53.180Z,11.56
2022-08-22T02:15:24.606Z,11.47
2022-08-22T02:16:56.130Z,11.52
2022-08-22T02:18:27.570Z,12.10
2022-08-22T02:19:59.180Z,13.97
2022-08-22T02:21:30.645Z,12.53
2022-08-22T02:23:01.998Z,13.92
2022-08-22T02:24:33.357Z,13.42
2022-08-22T02:26:04.808Z,13.36
2022-08-22T02:27:36.167Z,11.25
2022-08-22T02:29:07.745Z,11.67
2022-08-22T02:30:39.185Z,12.45
2022-08-22T02:32:10.478Z,13.36
2022-08-22T02:33:41.930Z,13.83
2022-08-22T02:35:13.226Z,11.10
2022-08-22T02:36:44.868Z,12.94
2022-08-22T02:38:16.308Z,13.22
2022-08-22T02:39:47.864Z,12.59
2022-08-22T02:41:19.279Z,12.84
2022-08-22T02:42:50.725Z,12.26
2022-08-22T02:44:22.136Z,12.48
2022-08-22T02:45:53.542Z,12.42
2022-08-22T02:47:24.862Z,11.23
2022-08-22T02:48:56.276Z,11.93
2022-08-22T02:50:27.796Z,13.75
2022-08-22T02:51:59.228Z,11.19
2022-08-22T02:53:31.498Z,11.88
2022-08-22T02:55:03.061Z,12.30
2022-08-22T02:56:34.523Z,13.45
2022-08-22T02:58:05.895Z,14.28
2022-08-22T02:59:37.480Z,14.78
2022-08-22T03:01:08.887Z,12.12
2022-08-22T03:02:40.394Z,12.17
2022-08-22T03:04:11.769Z,11.79
2022-08-22T03:05:43.101Z,9.82
2022-08-22T03:07:14.532Z,10.94
2022-08-22T03:08:50.825Z,9.98
2022-08-22T03:10:22.381Z,12.32
2022-08-22T03:11:53.782Z,9.77
2022-08-22T03:13:25.079Z,10.56
2022-08-22T03:14:56.419Z,11.19
2022-08-22T03:16:28.192Z,13.15
2022-08-22T03:17:59.968Z,11.82
2022-08-22T03:19:31.646Z,13.11
2022-08-22T03:21:03.062Z,12.59
2022-08-22T03:22:34.503Z,12.81
2022-08-22T03:24:05.822Z,11.36
2022-08-22T03:25:37.464Z,10.05
2022-08-22T03:27:08.773Z,12.90
2022-08-22T03:28:40.085Z,12.20
2022-08-22T03:30:30.582Z,12.17
2022-08-22T03:32:02.076Z,11.24
2022-08-22T03:33:33.584Z,12.31
2022-08-22T03:35:04.911Z,10.70
2022-08-22T03:36:36.376Z,12.72
2022-08-22T03:38:07.687Z,12.07
2022-08-22T03:39:39.178Z,13.38
2022-08-22T03:41:10.622Z,13.29
2022-08-22T03:42:43.153Z,14.72
2022-08-22T03:44:14.414Z,10.97
2022-08-22T03:45:45.780Z,12.98
2022-08-22T03:47:17.230Z,11.27
2022-08-22T03:48:48.686Z,12.41
2022-08-22T03:50:20.002Z,9.76
2022-08-22T03:51:51.407Z,12.91
2022-08-22T03:53:22.708Z,14.35
2022-08-22T03:54:54.012Z,11.37
2022-08-22T03:56:25.731Z,11.63
2022-08-22T04:00:23.079Z,12.71
2022-08-22T04:01:54.470Z,13.52
2022-08-22T04:03:25.876Z,11.19
2022-08-22T04:04:57.158Z,14.36
2022-08-22T04:06:28.710Z,13.28
2022-08-22T04:08:00.428Z,14.28
2022-08-22T04:09:31.997Z,14.93
2022-08-22T04:11:03.924Z,12.19
2022-08-22T04:12:35.296Z,10.90
2022-08-22T04:14:11.786Z,13.11
2022-08-22T04:15:43.139Z,10.93
2022-08-22T04:17:14.443Z,13.76
2022-08-22T04:18:45.764Z,13.96
2022-08-22T04:20:17.013Z,12.58
2022-08-22T04:21:48.484Z,14.07
2022-08-22T04:23:20.041Z,11.88
2022-08-22T04:24:52.200Z,13.96
2022-08-22T04:26:23.957Z,14.80
2022-08-22T04:28:00.354Z,13.32
2022-08-22T04:29:31.975Z,12.79
2022-08-22T04:31:03.559Z,14.73
2022-08-22T04:32:46.070Z,14.32
2022-08-22T04:34:22.397Z,16.45
2022-08-22T04:35:53.718Z,13.72
2022-08-22T04:37:25.094Z,15.00
2022-08-22T04:38:56.393Z,15.42
2022-08-22T04:40:27.708Z,12.84
2022-08-22T04:42:11.129Z,14.27
2022-08-22T04:44:02.873Z,13.52
2022-08-22T04:45:39.488Z,14.76
2022-08-22T04:47:21.061Z,13.93
2022-08-22T04:49:02.655Z,12.31
2022-08-22T04:51:18.454Z,14.25
2022-08-22T04:52:50.038Z,13.91
2022-08-22T04:54:21.631Z,12.43
2022-08-22T04:56:17.587Z,12.45
2022-08-22T04:57:53.899Z,13.52
2022-08-22T04:59:43.106Z,12.88
2022-08-22T05:01:21.823Z,14.21
2022-08-22T05:02:53.506Z,11.41
2022-08-22T05:04:25.097Z,13.07
2022-08-22T05:05:56.627Z,12.73
2022-08-22T05:07:27.924Z,13.92
2022-08-22T05:09:11.823Z,11.73
2022-08-22T05:10:45.674Z,11.91
2022-08-22T05:12:17.024Z,12.49
2022-08-22T05:13:48.448Z,12.91
2022-08-22T05:15:23.141Z,12.93
2022-08-22T05:16:55.026Z,15.60
2022-08-22T05:18:29.540Z,14.65
2022-08-22T05:20:01.505Z,14.73
2022-08-22T05:21:32.906Z,13.21
2022-08-22T05:23:05.941Z,14.26
2022-08-22T05:24:37.993Z,14.13
2022-08-22T05:26:09.566Z,12.86
2022-08-22T05:27:40.988Z,13.35
2022-08-22T05:29:12.476Z,12.87
2022-08-22T05:30:43.871Z,12.42
2022-08-22T05:32:15.285Z,13.08
2022-08-22T05:33:46.874Z,12.49
2022-08-22T05:35:18.445Z,12.16
2022-08-22T05:36:49.754Z,12.58
2022-08-22T05:38:21.080Z,13.11
2022-08-22T05:39:52.565Z,13.52
2022-08-22T05:41:24.196Z,15.55
2022-08-22T05:42:55.673Z,12.26
2022-08-22T05:44:27.005Z,14.90
2022-08-22T05:45:58.474Z,14.71
2022-08-22T05:47:30.075Z,14.40
2022-08-22T05:49:01.756Z,14.44
2022-08-22T05:50:33.361Z,12.08
2022-08-22T05:52:04.811Z,12.65
2022-08-22T05:53:37.564Z,14.10
2022-08-22T05:55:08.877Z,13.92
2022-08-22T05:56:40.531Z,15.51
2022-08-22T05:58:11.853Z,14.20
2022-08-22T05:59:43.406Z,11.14
2022-08-22T06:01:14.974Z,12.97
2022-08-22T06:02:46.501Z,12.48
2022-08-22T06:04:18.003Z,13.86
2022-08-22T06:05:49.534Z,13.08
2022-08-22T06:07:21.217Z,14.02
2022-08-22T06:08:52.631Z,15.60
2022-08-22T06:10:24.022Z,12.01
2022-08-22T06:11:55.401Z,14.73
2022-08-22T06:13:27.696Z,12.51
2022-08-22T06:15:01.342Z,12.48
2022-08-22T06:16:32.706Z,12.33
2022-08-22T06:18:04.276Z,13.76
2022-08-22T06:19:35.671Z,14.57
2022-08-22T06:21:07.007Z,16.20
2022-08-22T06:22:39.461Z,15.08
2022-08-22T06:24:10.792Z,16.54
2022-08-22T06:25:42.270Z,15.34
2022-08-22T06:27:18.622Z,15.90
2022-08-22T06:28:55.138Z,16.29
2022-08-22T06:30:27.198Z,15.03
2022-08-22T06:31:58.601Z,17.24
2022-08-22T06:33:30.028Z,16.14
2022-08-22T06:35:01.752Z,14.98
2022-08-22T06:36:33.471Z,14.93
2022-08-22T06:38:04.917Z,16.25
2022-08-22T06:39:37.378Z,14.67
2022-08-22T06:41:08.983Z,17.56
2022-08-22T06:42:40.421Z,14.61
2022-08-22T06:44:11.803Z,15.56
2022-08-22T06:45:45.209Z,15.97
2022-08-22T06:47:16.750Z,16.00
2022-08-22T06:48:48.250Z,15.66
2022-08-22T06:50:19.896Z,14.49
2022-08-22T06:51:51.286Z,15.10
2022-08-22T06:53:22.735Z,12.38
2022-08-22T06:54:54.099Z,14.31
2022-08-22T06:56:25.591Z,15.06
2022-08-22T06:57:57.274Z,14.55
2022-08-22T06:59:28.729Z,13.63
2022-08-22T07:01:05.142Z,14.51
2022-08-22T07:02:42.936Z,16.31
2022-08-22T07:04:15.368Z,14.58
2022-08-22T07:05:46.723Z,15.01
2022-08-22T07:07:18.173Z,17.02
2022-08-22T07:08:49.577Z,16.10
2022-08-22T07:10:21.075Z,15.89
2022-08-22T07:11:52.476Z,15.75
2022-08-22T07:13:23.825Z,15.93
2022-08-22T07:14:55.256Z,13.76
2022-08-22T07:16:26.951Z,14.58
2022-08-22T07:17:58.517Z,13.19
2022-08-22T07:19:30.065Z,15.82
2022-08-22T07:21:01.751Z,12.34
2022-08-22T07:22:33.711Z,12.65
2022-08-22T07:24:05.264Z,15.84
2022-08-22T07:25:36.640Z,14.46
2022-08-22T07:27:08.021Z,12.26
2022-08-22T07:28:50.934Z,12.11
2022-08-22T07:30:29.358Z,17.06
2022-08-22T07:32:01.110Z,14.48
2022-08-22T07:33:32.661Z,15.20
2022-08-22T07:35:04.067Z,12.44
2022-08-22T07:36:35.690Z,16.88
2022-08-22T07:38:07.136Z,13.46
2022-08-22T07:39:41.507Z,13.82
2022-08-22T07:41:14.313Z,17.21
2022-08-22T07:42:46.092Z,11.79
2022-08-22T07:44:19.236Z,13.00
2022-08-22T07:45:50.780Z,14.13
2022-08-22T07:47:26.639Z,12.12
2022-08-22T07:49:08.257Z,14.20
2022-08-22T07:50:40.739Z,15.19
2022-08-22T07:52:12.341Z,14.59
2022-08-22T07:53:43.911Z,13.64
2022-08-22T07:55:15.338Z,13.73
2022-08-22T07:56:46.861Z,15.48
2022-08-22T07:58:18.502Z,12.14
2022-08-22T07:59:50.206Z,12.81
2022-08-22T08:01:21.811Z,11.19
2022-08-22T08:02:53.670Z,12.75
2022-08-22T08:04:25.175Z,13.68
2022-08-22T08:05:57.168Z,12.73
2022-08-22T08:07:28.642Z,11.71
2022-08-22T08:09:00.062Z,11.57
2022-08-22T08:10:31.676Z,13.73
2022-08-22T08:12:03.200Z,14.74
2022-08-22T08:13:34.626Z,12.60
2022-08-22T08:15:06.419Z,12.68
2022-08-22T08:16:37.823Z,11.77
2022-08-22T08:18:09.277Z,12.32
2022-08-22T08:19:40.780Z,12.11
2022-08-22T08:21:12.400Z,12.60
2022-08-22T08:22:43.817Z,11.07
2022-08-22T08:24:15.383Z,11.05
2022-08-22T08:25:46.938Z,14.14
2022-08-22T08:27:25.159Z,11.96
2022-08-22T08:28:56.639Z,16.34
2022-08-22T08:30:28.058Z,16.93
2022-08-22T08:31:59.440Z,13.20
2022-08-22T08:33:30.841Z,12.86
2022-08-22T08:35:02.320Z,10.91
2022-08-22T08:36:35.254Z,11.95
2022-08-22T08:38:06.895Z,10.94
2022-08-22T08:39:38.556Z,12.23
2022-08-22T08:41:10.010Z,12.60
2022-08-22T08:42:42.127Z,11.92
2022-08-22T08:44:14.959Z,11.26
2022-08-22T08:45:46.737Z,10.95
2022-08-22T08:47:18.140Z,10.26
2022-08-22T08:48:49.671Z,13.11
2022-08-22T08:50:21.560Z,9.36
2022-08-22T08:51:55.364Z,9.34
2022-08-22T08:53:26.848Z,9.54
2022-08-22T08:54:58.235Z,9.95
2022-08-22T08:56:29.845Z,10.38
2022-08-22T08:58:05.110Z,9.03
2022-08-22T08:59:40.406Z,10.72
2022-08-22T09:01:16.189Z,11.56
2022-08-22T09:02:50.160Z,9.48
2022-08-22T09:04:21.604Z,11.08
2022-08-22T09:05:53.103Z,11.22
2022-08-22T09:07:24.604Z,11.59
2022-08-22T09:08:56.103Z,8.86
2022-08-22T09:10:29.532Z,8.31
2022-08-22T09:12:01.183Z,9.38
2022-08-22T09:13:34.495Z,9.92
2022-08-22T09:15:14.504Z,10.77
2022-08-22T09:16:50.067Z,10.13
2022-08-22T09:18:23.344Z,11.15
2022-08-22T09:19:58.785Z,11.88
2022-08-22T09:21:31.505Z,10.24
2022-08-22T09:23:03.151Z,11.45
2022-08-22T09:24:35.416Z,10.89
2022-08-22T09:26:07.030Z,10.03
2022-08-22T09:27:40.424Z,11.31
2022-08-22T09:29:11.996Z,11.48
2022-08-22T09:30:43.740Z,7.98
2022-08-22T09:32:15.747Z,8.83
2022-08-22T09:33:51.768Z,9.37
2022-08-22T09:35:23.557Z,10.57
2022-08-22T09:36:55.082Z,9.45
2022-08-22T09:38:27.591Z,9.25
2022-08-22T09:39:59.093Z,9.97
2022-08-22T09:41:31.434Z,9.94
2022-08-22T09:43:04.179Z,6.80
2022-08-22T09:44:39.537Z,8.54
2022-08-22T09:46:11.399Z,8.48
2022-08-22T09:47:43.077Z,6.86
2022-08-22T09:49:16.475Z,7.57
2022-08-22T09:50:48.127Z,6.88
2022-08-22T09:52:34.009Z,7.31
2022-08-22T09:54:09.715Z,7.64
2022-08-22T09:55:41.421Z,6.87
2022-08-22T09:57:14.097Z,6.46
2022-08-22T09:58:46.000Z,8.30
2022-08-22T10:00:17.389Z,7.59
2022-08-22T10:01:53.757Z,4.70
2022-08-22T10:03:25.376Z,6.60
2022-08-22T18:05:48.831Z,7.00
2022-08-22T18:07:20.436Z,5.48
2022-08-22T18:09:14.822Z,6.82
2022-08-22T18:10:46.440Z,5.43
2022-08-22T18:12:18.022Z,6.73
2022-08-22T18:13:50.696Z,6.74
2022-08-22T18:15:22.128Z,7.12
2022-08-22T18:16:53.524Z,6.67
2022-08-22T18:18:29.618Z,6.55
2022-08-22T18:20:01.907Z,7.45
2022-08-22T18:21:33.615Z,7.67
2022-08-22T18:23:05.070Z,7.29
2022-08-22T18:24:53.316Z,6.26
2022-08-22T18:26:24.895Z,6.72
2022-08-22T18:27:58.929Z,7.39
2022-08-22T18:29:30.643Z,6.23
2022-08-22T18:31:02.136Z,6.40
2022-08-22T18:32:33.579Z,5.98
2022-08-22T18:34:05.053Z,5.39
2022-08-22T18:35:37.043Z,6.56
2022-08-22T18:37:11.893Z,6.73
2022-08-22T18:38:43.447Z,5.21
2022-08-22T18:40:14.945Z,6.32
2022-08-22T18:41:46.571Z,6.59
2022-08-22T18:43:18.088Z,5.83
2022-08-22T18:44:49.701Z,6.01
2022-08-22T18:46:21.278Z,7.28
2022-08-22T18:47:53.017Z,6.71
2022-08-22T18:49:24.457Z,6.15
2022-08-22T18:50:56.024Z,5.97
2022-08-22T18:52:27.522Z,4.75
2022-08-22T18:53:59.267Z,5.11
2022-08-22T18:55:30.906Z,5.45
2022-08-22T18:57:02.435Z,6.51
2022-08-22T18:58:33.895Z,5.36
2022-08-22T19:00:06.450Z,6.87
2022-08-22T19:01:44.674Z,8.00
2022-08-22T19:03:16.619Z,5.69
2022-08-22T19:04:48.122Z,7.62
2022-08-22T19:06:19.911Z,5.23
2022-08-22T19:07:51.669Z,5.71
2022-08-22T19:09:23.091Z,6.34
2022-08-22T19:10:54.596Z,6.79
2022-08-22T19:12:26.073Z,6.63
2022-08-22T19:13:58.845Z,6.26
2022-08-22T19:15:30.589Z,6.15
2022-08-22T19:17:02.195Z,6.04
2022-08-22T19:18:33.783Z,5.55
2022-08-22T19:20:05.269Z,5.60
2022-08-22T19:21:37.627Z,6.70
2022-08-22T19:23:09.671Z,5.88
2022-08-22T19:25:11.786Z,6.64
2022-08-22T19:26:48.538Z,7.26
2022-08-22T19:28:20.016Z,6.69
2022-08-22T19:29:51.541Z,6.52
2022-08-22T19:31:23.220Z,8.14
2022-08-22T19:32:54.905Z,6.76
2022-08-22T19:34:26.387Z,7.08
2022-08-22T19:35:57.860Z,8.47
2022-08-22T19:37:31.978Z,8.76
2022-08-22T19:39:04.656Z,6.12
2022-08-22T19:40:40.417Z,7.94
2022-08-22T19:42:17.273Z,8.31
2022-08-22T19:43:48.773Z,8.32
2022-08-22T19:45:20.384Z,6.55
2022-08-22T19:46:52.919Z,6.40
2022-08-22T19:48:24.433Z,5.70
2022-08-22T19:49:55.906Z,5.70
2022-08-22T19:51:27.608Z,5.94
2022-08-22T19:52:59.452Z,7.44
2022-08-22T19:54:31.022Z,6.40
2022-08-22T19:56:02.558Z,6.58
2022-08-22T19:57:39.099Z,6.80
2022-08-22T19:59:10.507Z,6.66
2022-08-22T20:00:42.309Z,5.22
2022-08-22T20:02:13.952Z,9.36
2022-08-22T20:03:47.174Z,8.35
2022-08-22T20:05:18.698Z,5.50
2022-08-22T20:06:50.346Z,7.06
2022-08-22T20:08:21.950Z,5.93
2022-08-22T20:09:56.776Z,6.33
2022-08-22T20:11:28.394Z,6.86
2022-08-22T20:12:59.979Z,8.68
2022-08-22T20:14:31.758Z,9.43
2022-08-22T20:16:03.231Z,8.19
2022-08-22T20:17:34.775Z,12.22
2022-08-22T20:19:07.685Z,10.26
2022-08-22T20:20:40.229Z,9.10
2022-08-22T20:22:11.676Z,8.42
2022-08-22T20:23:43.143Z,6.85
2022-08-22T20:25:15.729Z,7.09
2022-08-22T20:27:15.061Z,6.35
2022-08-22T20:28:47.106Z,7.40
2022-08-22T20:30:18.770Z,7.66
2022-08-22T20:31:50.364Z,6.91
2022-08-22T20:33:21.853Z,8.58
2022-08-22T20:34:53.375Z,8.96
2022-08-22T20:36:28.425Z,6.30
2022-08-22T20:38:15.678Z,7.40
2022-08-22T20:39:47.291Z,7.55
2022-08-22T20:41:30.379Z,7.83
2022-08-22T20:43:02.083Z,7.19
2022-08-22T20:44:43.124Z,6.32
2022-08-22T20:46:14.695Z,7.75
2022-08-22T20:47:49.342Z,7.47
2022-08-22T20:49:21.310Z,7.16
2022-08-22T20:50:52.787Z,7.46
2022-08-22T20:52:24.212Z,7.45
2022-08-22T20:53:55.631Z,7.64
2022-08-22T20:55:27.249Z,7.26
2022-08-22T20:57:03.587Z,5.94
2022-08-22T20:58:35.082Z,7.12
2022-08-22T21:00:09.272Z,6.48
2022-08-22T21:01:40.689Z,8.78
2022-08-22T21:03:12.155Z,6.28
2022-08-22T21:04:43.701Z,6.13
2022-08-22T21:06:15.223Z,10.45
2022-08-22T21:07:46.644Z,7.46
2022-08-22T21:09:18.190Z,7.52
2022-08-22T21:10:49.668Z,7.78
2022-08-22T21:12:21.102Z,9.88
2022-08-22T21:13:52.594Z,6.86
2022-08-22T21:15:24.005Z,8.21
2022-08-22T21:16:55.407Z,8.48
2022-08-22T21:18:26.840Z,8.22
2022-08-22T21:19:58.375Z,8.27
2022-08-22T21:21:29.774Z,5.73
2022-08-22T21:23:01.174Z,5.80
2022-08-22T21:24:32.603Z,7.91
2022-08-22T21:26:03.987Z,6.67
2022-08-22T21:27:35.424Z,5.45
2022-08-22T21:29:07.165Z,6.81
2022-08-22T21:30:38.570Z,8.48
2022-08-22T21:32:10.077Z,8.41
2022-08-22T21:33:41.514Z,5.98
2022-08-22T21:35:13.687Z,6.81
2022-08-22T21:36:45.330Z,7.72
2022-08-22T21:38:18.206Z,6.84
2022-08-22T21:39:49.711Z,5.75
2022-08-22T21:41:21.273Z,7.25
2022-08-22T21:43:33.880Z,6.67
2022-08-22T21:45:06.050Z,6.94
2022-08-22T21:46:38.068Z,6.88
2022-08-22T21:48:10.593Z,6.91
2022-08-22T21:49:42.045Z,8.73
2022-08-22T21:51:13.436Z,8.31
2022-08-22T21:52:44.968Z,7.45
2022-08-22T21:54:19.079Z,6.91
2022-08-22T21:55:51.003Z,5.93
2022-08-22T21:57:22.409Z,6.42
2022-08-22T21:58:53.786Z,7.74
2022-08-22T22:00:26.167Z,5.80
2022-08-22T22:01:57.853Z,6.62
2022-08-22T22:03:29.223Z,7.62
2022-08-22T22:05:00.609Z,6.48
2022-08-22T22:06:33.210Z,6.04
2022-08-22T22:08:04.565Z,7.80
2022-08-22T22:10:11.398Z,5.97
2022-08-22T22:11:42.813Z,6.40
2022-08-22T22:13:14.247Z,7.24
2022-08-22T22:14:45.710Z,5.10
2022-08-22T22:16:17.245Z,7.74
2022-08-22T22:17:48.694Z,6.32
2022-08-22T22:19:20.186Z,7.24
2022-08-22T22:20:51.597Z,8.95
2022-08-22T22:22:23.223Z,7.27
2022-08-22T22:23:54.594Z,8.42
2022-08-22T22:25:41.191Z,9.48
2022-08-22T22:27:16.932Z,9.57
2022-08-22T22:28:48.884Z,6.47
2022-08-22T22:30:20.347Z,6.87
2022-08-22T22:31:52.075Z,9.30
2022-08-22T22:33:23.447Z,6.57
2022-08-22T22:34:54.948Z,6.90
2022-08-22T22:36:27.169Z,8.73
2022-08-22T22:37:58.818Z,7.79
2022-08-22T22:39:30.478Z,6.32
2022-08-22T22:41:01.850Z,9.96
2022-08-22T22:42:33.375Z,7.08
2022-08-22T22:44:04.901Z,8.12
2022-08-22T22:45:36.348Z,6.52
2022-08-22T22:47:07.743Z,6.22
2022-08-22T22:48:39.149Z,7.65
2022-08-22T22:50:10.523Z,7.14
2022-08-22T22:51:41.924Z,7.61
2022-08-22T22:53:19.382Z,5.73
2022-08-22T22:54:51.551Z,6.82
2022-08-22T22:56:22.958Z,8.42
2022-08-22T22:57:58.893Z,5.73
2022-08-22T22:59:33.177Z,4.91
2022-08-22T23:01:04.674Z,6.00
2022-08-22T23:02:36.087Z,5.54
2022-08-22T23:04:07.523Z,5.31
2022-08-22T23:05:40.087Z,6.73
2022-08-22T23:07:11.422Z,6.43
2022-08-22T23:08:42.844Z,7.34
2022-08-22T23:10:16.703Z,6.61
2022-08-22T23:11:51.842Z,6.40
2022-08-22T23:13:23.274Z,5.70
2022-08-22T23:14:54.752Z,6.52
2022-08-22T23:16:26.140Z,7.53
2022-08-22T23:17:57.599Z,6.08
2022-08-22T23:19:29.255Z,8.42
2022-08-22T23:21:00.965Z,7.28
2022-08-22T23:22:32.627Z,8.07
2022-08-22T23:24:05.377Z,6.41
2022-08-22T23:25:36.853Z,6.63
2022-08-22T23:27:08.267Z,5.46
2022-08-22T23:28:39.760Z,6.22
2022-08-22T23:30:11.421Z,6.61
2022-08-22T23:31:42.878Z,7.67
2022-08-22T23:33:14.341Z,5.61
2022-08-22T23:34:46.141Z,6.72
2022-08-22T23:36:17.587Z,5.00
2022-08-22T23:37:49.202Z,8.07
2022-08-22T23:39:20.678Z,6.67
2022-08-22T23:40:52.161Z,6.07
2022-08-22T23:42:23.589Z,6.16
2022-08-22T23:43:54.997Z,6.98
2022-08-22T23:45:26.498Z,6.92
2022-08-22T23:46:57.998Z,7.13
2022-08-22T23:48:29.682Z,6.10
2022-08-22T23:50:02.970Z,6.39
2022-08-22T23:51:37.591Z,6.64
2022-08-22T23:53:09.048Z,8.03
2022-08-22T23:54:40.487Z,7.32
2022-08-22T23:56:19.813Z,6.96
2022-08-22T23:57:51.521Z,8.38
2022-08-22T23:59:22.924Z,6.80
